Time;durP1;ratioP1;P1;durP2;ratioP2;P2;SDS_P1;SDS_P2;PMS_P1;PMS_P2;Temp;Humidity;BMP_temperature;BMP_pressure;BME280_temperature;BME280_humidity;BME280_pressure;Samples;Min_cycle;Max_cycle;Signal;HPM_P1;HPM_P2
2023/09/18 06:52:06;;;;;;;9.98;5.55;;;25.30;43.90;;;;;;5070608;28;20416;-81
2023/09/18 06:54:33;;;;;;;9.52;6.18;;;25.20;43.80;;;;;;5074569;28;20047;-81
2023/09/18 06:57:00;;;;;;;11.63;6.30;;;25.30;43.70;;;;;;5074488;28;20043;-81
2023/09/18 06:59:29;;;;;;;13.20;5.90;;;25.30;43.60;;;;;;5056653;28;20028;-81
2023/09/18 07:01:57;;;;;;;16.93;6.30;;;25.30;43.90;;;;;;5057176;28;20064;-81
2023/09/18 07:04:24;;;;;;;15.60;6.50;;;25.30;43.90;;;;;;5071984;28;20291;-80
2023/09/18 07:06:53;;;;;;;11.27;5.75;;;25.20;44.30;;;;;;5072261;28;20032;-80
2023/09/18 07:09:23;;;;;;;11.30;6.22;;;25.20;44.10;;;;;;5054605;28;20102;-81
2023/09/18 07:11:50;;;;;;;;;;;25.20;43.80;;;;;;5054719;28;20070;-80
2023/09/18 07:14:17;;;;;;;11.05;5.47;;;25.20;43.90;;;;;;5052787;28;19970;-80
2023/09/18 07:16:45;;;;;;;14.68;5.70;;;25.20;44.00;;;;;;5068023;28;20118;-75
2023/09/18 07:19:16;;;;;;;14.77;5.90;;;25.20;44.10;;;;;;5050301;28;20062;-78
2023/09/18 07:21:44;;;;;;;17.95;6.15;;;25.10;44.20;;;;;;5071872;28;20116;-77
2023/09/18 07:24:16;;;;;;;17.10;5.97;;;25.10;44.10;;;;;;5053181;28;20064;-77
2023/09/18 07:26:46;;;;;;;12.63;5.55;;;25.10;44.40;;;;;;5070972;28;20103;-77
2023/09/18 07:29:14;;;;;;;14.48;5.90;;;25.00;44.50;;;;;;5069526;28;20429;-76
2023/09/18 07:31:43;;;;;;;13.20;6.07;;;25.00;44.70;;;;;;5037615;28;20094;-78
2023/09/18 07:34:10;;;;;;;13.23;5.90;;;25.00;44.90;;;;;;5070904;28;20414;-78
2023/09/18 07:36:37;;;;;;;10.07;5.82;;;25.00;44.70;;;;;;5071069;28;20032;-79
2023/09/18 07:39:05;;;;;;;10.05;5.40;;;24.90;44.70;;;;;;5070304;28;20044;-78
2023/09/18 07:41:33;;;;;;;12.68;6.00;;;25.00;44.50;;;;;;5069826;28;20047;-78
2023/09/18 07:44:00;;;;;;;12.60;6.22;;;25.00;44.60;;;;;;5069888;28;20035;-77
2023/09/18 07:46:27;;;;;;;10.48;5.50;;;25.00;44.60;;;;;;5069433;28;20067;-77
2023/09/18 07:48:55;;;;;;;11.13;5.18;;;25.00;44.70;;;;;;5070888;28;20556;-80
2023/09/18 21:04:22;;;;;;;11.88;6.50;;;18.70;68.60;;;;;;5065227;28;20068;-77
2023/09/18 21:06:50;;;;;;;20.48;6.93;;;18.80;67.50;;;;;;5048310;28;20064;-77
2023/09/18 21:09:17;;;;;;;17.27;7.38;;;18.80;68.60;;;;;;5033709;28;20103;-77
2023/09/18 21:11:44;;;;;;;13.90;7.22;;;18.80;68.00;;;;;;5034827;28;20032;-77
2023/09/18 21:14:12;;;;;;;14.45;7.22;;;18.80;68.20;;;;;;5052376;28;20029;-77
2023/09/18 21:16:39;;;;;;;10.98;6.75;;;18.90;67.80;;;;;;5034676;28;20136;-77
2023/09/18 21:19:07;;;;;;;11.10;6.90;;;18.90;65.80;;;;;;5030772;28;21178;-77
2023/09/18 21:21:34;;;;;;;14.70;6.80;;;19.00;64.30;;;;;;5051265;28;20087;-77
2023/09/18 21:24:01;;;;;;;14.13;7.15;;;19.10;64.00;;;;;;5052197;28;20033;-77
2023/09/18 21:26:28;;;;;;;12.70;7.20;;;19.10;63.60;;;;;;5034130;28;20079;-77
2023/09/18 21:28:56;;;;;;;16.65;7.20;;;19.20;61.70;;;;;;5034269;28;20075;-78
2023/09/18 21:31:23;;;;;;;12.68;6.78;;;19.20;61.90;;;;;;5033198;28;20033;-76
2023/09/18 21:33:51;;;;;;;17.20;7.00;;;19.30;62.00;;;;;;5016812;28;20044;-76
2023/09/18 21:36:20;;;;;;;17.42;7.00;;;19.30;62.00;;;;;;5034367;28;20033;-76
2023/09/18 21:38:51;;;;;;;16.80;6.97;;;19.40;62.30;;;;;;5034268;28;20120;-76
2023/09/18 21:41:19;;;;;;;11.45;6.60;;;19.50;60.90;;;;;;5018977;28;20025;-76
2023/09/18 21:43:47;;;;;;;12.77;7.57;;;19.60;60.80;;;;;;5017723;28;20064;-76
2023/09/18 21:46:14;;;;;;;13.80;6.40;;;19.70;60.80;;;;;;5017804;28;20489;-76
2023/09/18 21:48:41;;;;;;;9.15;6.30;;;19.70;60.20;;;;;;5032905;28;20558;-76
2023/09/18 21:51:11;;;;;;;12.65;6.90;;;19.80;60.20;;;;;;5034005;28;20033;-75
2023/09/18 21:53:38;;;;;;;16.77;7.57;;;20.00;60.60;;;;;;5034514;28;20112;-76
2023/09/18 21:56:06;;;;;;;17.92;8.38;;;20.00;60.10;;;;;;5034282;28;20065;-76
2023/09/18 21:58:34;;;;;;;17.40;7.68;;;20.10;59.40;;;;;;5033924;28;20036;-78
2023/09/18 22:01:05;;;;;;;24.02;8.57;;;20.10;59.20;;;;;;5051942;28;20032;-77
2023/09/18 22:03:39;;;;;;;29.45;8.32;;;20.20;58.80;;;;;;5034600;28;20048;-78
